Aviation Digital Data Service (ADDS)

Output produced by TAFs form (2342 UTC 18 July 2018)
found at http://www.aviationweather.gov/adds/tafs/
 
RJEC 182300Z 33003KT 290V010 9999 FEW006 SCT008 BKN010 20/18 Q1012
TAF RJEC 182312Z 1900/2006 26005KT 9999 FEW008 BKN015 
     TEMPO 1900/1903 FEW005 BKN008 
     BECMG 1909/1911 18010KT